createdAt,value
2022-12-04T06:39:57.845Z,2.69
2022-12-04T06:42:24.785Z,2.74
2022-12-04T06:44:51.569Z,2.88
2022-12-04T06:47:18.543Z,3.00
2022-12-04T06:49:46.225Z,3.07
2022-12-04T06:52:13.064Z,3.24
2022-12-04T06:54:39.865Z,3.37
2022-12-04T06:57:06.759Z,3.60
2022-12-04T06:59:34.090Z,3.75
2022-12-04T07:02:00.897Z,3.87
2022-12-04T07:04:27.754Z,4.00
2022-12-04T07:06:54.821Z,4.11
2022-12-04T07:09:21.906Z,4.25
2022-12-04T07:11:48.908Z,4.34
2022-12-04T07:14:15.886Z,4.45
2022-12-04T07:16:43.220Z,4.56
2022-12-04T07:19:13.060Z,4.70
2022-12-04T07:21:40.726Z,4.86
2022-12-04T07:24:07.673Z,5.07
2022-12-04T07:26:34.574Z,5.21
2022-12-04T07:29:01.490Z,5.30
2022-12-04T07:31:29.783Z,5.42
2022-12-04T07:33:57.867Z,5.50
2022-12-04T07:36:26.006Z,5.58
2022-12-04T07:38:52.887Z,5.61
2022-12-04T07:41:20.645Z,5.55
2022-12-04T07:43:47.769Z,5.58
2022-12-04T07:46:26.512Z,5.61
2022-12-04T07:48:56.863Z,5.55
2022-12-04T07:51:26.813Z,5.55
2022-12-04T07:53:54.870Z,5.56
2022-12-04T07:56:22.062Z,5.60
2022-12-04T07:58:49.115Z,5.60
2022-12-04T08:01:18.786Z,5.68
2022-12-04T08:03:48.946Z,5.74
2022-12-04T08:06:21.986Z,5.74
2022-12-04T08:08:49.581Z,5.74
2022-12-04T08:11:25.567Z,5.77
2022-12-04T08:14:04.302Z,5.77
2022-12-04T08:16:33.087Z,5.77
2022-12-04T08:19:00.970Z,5.78
2022-12-04T08:21:30.646Z,5.80
2022-12-04T08:23:58.836Z,5.78
2022-12-04T08:26:27.605Z,5.77
2022-12-04T08:28:55.676Z,5.80
2022-12-04T08:31:26.403Z,5.80
2022-12-04T08:33:57.163Z,5.85
2022-12-04T08:36:25.058Z,5.90
2022-12-04T08:38:52.597Z,6.00
2022-12-04T08:41:21.634Z,6.05
2022-12-04T08:43:52.687Z,6.04
2022-12-04T08:46:19.603Z,6.11
2022-12-04T08:48:46.832Z,6.11
2022-12-04T08:51:19.876Z,6.14
2022-12-04T08:53:46.816Z,6.20
2022-12-04T08:56:14.419Z,6.19
2022-12-04T08:58:41.380Z,6.28
2022-12-04T09:01:11.215Z,6.35
2022-12-04T09:03:39.056Z,6.43
2022-12-04T09:06:10.344Z,6.42
2022-12-04T09:08:37.675Z,6.43
2022-12-04T09:11:32.687Z,6.46
2022-12-04T09:14:01.061Z,6.44
2022-12-04T09:16:28.170Z,6.43
2022-12-04T09:18:56.286Z,6.46
2022-12-04T09:21:25.089Z,6.53
2022-12-04T09:23:52.617Z,6.64
2022-12-04T09:26:28.760Z,6.73
2022-12-04T09:28:58.125Z,6.76
2022-12-04T09:31:25.655Z,6.82
2022-12-04T09:33:53.399Z,6.87
2022-12-04T09:36:20.879Z,6.86
2022-12-04T09:38:50.254Z,6.85
2022-12-04T09:41:17.005Z,6.86
2022-12-04T09:43:43.814Z,6.88
2022-12-04T09:46:18.795Z,6.87
2022-12-04T09:48:48.830Z,6.75
2022-12-04T09:51:20.662Z,6.74
2022-12-04T09:54:00.598Z,6.78
2022-12-04T09:56:30.498Z,6.76
2022-12-04T09:59:11.712Z,6.78
2022-12-04T10:02:22.996Z,6.77
2022-12-04T10:04:50.029Z,6.65
2022-12-04T10:07:33.730Z,6.66
2022-12-04T10:10:06.845Z,6.68
2022-12-04T10:12:36.641Z,6.67
2022-12-04T10:15:25.276Z,6.61
2022-12-04T10:18:07.229Z,6.63
2022-12-04T10:21:09.847Z,6.57
2022-12-04T10:24:05.992Z,6.62
2022-12-04T10:26:55.157Z,6.66
2022-12-04T10:29:30.592Z,6.71
2022-12-04T10:32:17.461Z,6.85
2022-12-04T10:34:46.202Z,6.92
2022-12-04T10:37:15.432Z,6.94
2022-12-04T10:39:51.133Z,6.97
2022-12-04T10:42:32.002Z,6.96
2022-12-04T10:44:59.419Z,6.91
2022-12-04T10:47:27.269Z,6.95
2022-12-04T10:50:02.093Z,6.98
2022-12-04T10:52:29.560Z,7.02
2022-12-04T10:55:03.038Z,7.04
2022-12-04T10:57:44.751Z,7.02
2022-12-04T11:00:31.422Z,6.89
2022-12-04T11:03:09.854Z,6.95
2022-12-04T11:05:53.248Z,7.03
2022-12-04T11:08:31.331Z,7.05
2022-12-04T11:11:05.463Z,7.04
2022-12-04T11:13:33.394Z,7.05
2022-12-04T11:16:02.492Z,7.08
2022-12-04T11:18:33.222Z,7.13
2022-12-04T11:21:08.642Z,7.08
2022-12-04T11:23:47.767Z,7.12
2022-12-04T11:26:15.703Z,7.32
2022-12-04T11:28:52.861Z,7.52
2022-12-04T11:31:23.601Z,7.66
2022-12-04T11:33:58.786Z,7.79
2022-12-04T11:36:40.984Z,8.20
2022-12-04T11:39:21.310Z,8.44
2022-12-04T11:42:01.056Z,8.61
2022-12-04T11:44:32.780Z,8.81
2022-12-04T11:47:02.758Z,9.03
2022-12-04T11:49:32.093Z,9.24
2022-12-04T11:52:27.107Z,9.33
2022-12-04T11:55:38.664Z,9.45
2022-12-04T11:58:45.080Z,9.45
2022-12-04T12:01:27.177Z,9.30
2022-12-04T12:04:26.522Z,9.22
2022-12-04T12:07:32.750Z,9.12
2022-12-04T12:10:12.048Z,8.90
2022-12-04T12:12:39.036Z,8.97
2022-12-04T12:15:14.976Z,8.85
2022-12-04T12:17:59.904Z,8.62
2022-12-04T12:20:36.037Z,8.43
2022-12-04T12:23:20.031Z,8.23
2022-12-04T12:26:08.656Z,8.09
2022-12-04T12:28:59.984Z,7.93
2022-12-04T12:31:59.899Z,7.74
2022-12-04T12:34:39.844Z,7.64
2022-12-04T12:37:46.986Z,7.53
2022-12-04T12:40:53.124Z,7.47
2022-12-04T12:43:30.831Z,7.44
2022-12-04T12:46:15.106Z,7.39
2022-12-04T12:49:09.678Z,7.25
2022-12-04T12:51:46.449Z,7.21
2022-12-04T12:54:48.463Z,7.16
2022-12-04T12:57:27.205Z,7.14
2022-12-04T13:00:00.513Z,7.03
2022-12-04T13:02:43.502Z,6.97
2022-12-04T13:05:15.724Z,6.89
2022-12-04T13:08:01.566Z,6.82
2022-12-04T13:11:16.452Z,6.71
2022-12-04T13:13:49.406Z,6.71
2022-12-04T13:16:35.051Z,6.65
2022-12-04T13:19:05.792Z,6.73
2022-12-04T13:22:09.942Z,6.88
2022-12-04T13:24:55.698Z,6.88
2022-12-04T13:27:45.656Z,6.79
2022-12-04T13:30:31.414Z,6.70
2022-12-04T13:33:34.887Z,6.59
2022-12-04T13:36:09.053Z,6.49
2022-12-04T13:38:59.396Z,6.44
2022-12-04T13:41:29.174Z,6.52
2022-12-04T13:44:00.633Z,6.48
2022-12-04T13:46:58.020Z,6.37
2022-12-04T13:49:31.973Z,6.30
2022-12-04T13:52:26.364Z,6.24
2022-12-04T13:54:59.924Z,6.14
2022-12-04T13:57:28.520Z,6.07
2022-12-04T14:00:27.449Z,5.96
2022-12-04T14:03:00.696Z,5.91
2022-12-04T14:05:50.686Z,5.94
2022-12-04T14:08:30.705Z,5.88
2022-12-04T14:11:14.141Z,5.82
2022-12-04T14:13:55.336Z,5.77
2022-12-04T14:16:41.507Z,5.73
2022-12-04T14:19:24.840Z,5.67
2022-12-04T14:21:54.288Z,5.58
2022-12-04T14:24:39.413Z,5.49
2022-12-04T14:27:32.968Z,5.43
2022-12-04T14:30:01.754Z,5.40
2022-12-04T14:32:33.811Z,5.32
2022-12-04T14:35:01.421Z,5.29
2022-12-04T14:37:34.428Z,5.26
2022-12-04T14:40:03.647Z,5.19
2022-12-04T14:42:40.549Z,5.14
2022-12-04T14:45:34.427Z,5.14
2022-12-04T14:48:06.772Z,5.10
2022-12-04T14:50:44.561Z,5.10
2022-12-04T14:53:33.204Z,5.07
2022-12-04T14:56:35.565Z,5.05
2022-12-04T14:59:15.587Z,5.05
2022-12-04T15:01:42.897Z,5.04
2022-12-04T15:04:23.434Z,5.03
2022-12-04T15:06:56.803Z,4.99
2022-12-04T15:09:46.232Z,5.02
2022-12-04T15:12:39.866Z,4.98
2022-12-04T15:15:12.864Z,4.97
2022-12-04T15:17:40.409Z,4.95
2022-12-04T15:20:15.470Z,4.93
2022-12-04T15:22:42.873Z,4.88
2022-12-04T15:25:26.702Z,4.91
2022-12-04T15:28:01.044Z,4.91
2022-12-04T15:30:30.455Z,4.84
2022-12-04T15:32:57.316Z,4.84
2022-12-04T15:35:33.577Z,4.80
2022-12-04T15:38:00.929Z,4.79
2022-12-04T15:40:30.487Z,4.73
2022-12-04T15:43:15.488Z,4.77
2022-12-04T15:45:42.303Z,4.74
2022-12-04T15:48:09.344Z,4.69
2022-12-04T15:50:36.410Z,4.72
2022-12-04T15:53:26.617Z,4.74
2022-12-04T15:55:57.233Z,4.66
2022-12-04T15:58:30.693Z,4.65
2022-12-04T16:01:03.855Z,4.62
2022-12-04T16:03:34.654Z,4.59
2022-12-04T16:06:08.401Z,4.57
2022-12-04T16:08:40.820Z,4.55
2022-12-04T16:11:26.118Z,4.55
2022-12-04T16:14:04.110Z,4.51
2022-12-04T16:16:31.669Z,4.50
2022-12-04T16:19:01.139Z,4.47
2022-12-04T16:21:30.921Z,4.46
2022-12-04T16:24:03.068Z,4.41
2022-12-04T16:26:30.334Z,4.38
2022-12-04T16:28:59.882Z,4.35
2022-12-04T16:31:26.841Z,4.32
2022-12-04T16:33:58.292Z,4.29
2022-12-04T16:36:27.580Z,4.25
2022-12-04T16:38:54.562Z,4.20
2022-12-04T16:41:21.832Z,4.16
2022-12-04T16:43:56.119Z,4.10
2022-12-04T16:46:26.943Z,4.08
2022-12-04T16:48:54.295Z,4.05
2022-12-04T16:51:26.955Z,4.06
2022-12-04T16:53:54.753Z,4.03
2022-12-04T16:56:24.031Z,4.04
2022-12-04T16:58:51.866Z,4.00
2022-12-04T17:01:21.572Z,3.97
2022-12-04T17:03:48.896Z,4.01
2022-12-04T17:06:19.173Z,4.00
2022-12-04T17:08:46.454Z,3.99
2022-12-04T17:11:16.890Z,3.99
2022-12-04T17:13:45.693Z,3.96
2022-12-04T17:16:15.158Z,3.93
2022-12-04T17:18:43.300Z,3.94
2022-12-04T17:21:12.493Z,3.87
2022-12-04T17:23:42.585Z,3.93
2022-12-04T17:26:12.449Z,3.86
2022-12-04T17:28:42.457Z,3.91
2022-12-04T17:31:22.343Z,3.89
2022-12-04T17:33:49.917Z,3.87
2022-12-04T17:36:20.993Z,3.86
2022-12-04T17:38:48.009Z,3.85
2022-12-04T17:41:15.971Z,3.84
2022-12-04T17:43:44.115Z,3.83
2022-12-04T17:46:17.455Z,3.82
2022-12-04T17:48:48.409Z,3.83
2022-12-04T17:51:22.340Z,3.78
2022-12-04T17:53:54.023Z,3.82
2022-12-04T17:56:22.802Z,3.88
2022-12-04T17:58:50.483Z,3.87
2022-12-04T18:01:24.473Z,3.86
2022-12-04T18:04:00.060Z,3.90
2022-12-04T18:06:30.027Z,3.92
2022-12-04T18:09:00.554Z,3.90
2022-12-04T18:11:32.160Z,3.92
2022-12-04T18:14:11.512Z,3.91
2022-12-04T18:16:41.341Z,3.93
2022-12-04T18:19:08.139Z,3.92
2022-12-04T18:21:35.202Z,3.90
2022-12-04T18:24:04.404Z,3.91
2022-12-04T18:26:37.866Z,3.90
2022-12-04T18:29:05.516Z,3.91
2022-12-04T18:31:33.460Z,3.91
2022-12-04T18:34:00.711Z,3.91
2022-12-04T18:36:30.669Z,3.94
2022-12-04T18:39:01.655Z,3.96
2022-12-04T18:41:29.473Z,3.96
2022-12-04T18:43:57.229Z,3.96
2022-12-04T18:46:25.288Z,3.98
2022-12-04T18:48:58.659Z,3.96
2022-12-04T18:51:34.355Z,3.96
2022-12-04T18:54:04.483Z,3.97
2022-12-04T18:56:33.577Z,3.93
2022-12-04T18:59:08.371Z,3.93
2022-12-04T19:01:35.332Z,3.94
2022-12-04T19:04:05.210Z,3.95
2022-12-04T19:06:38.337Z,3.95
2022-12-04T19:09:08.626Z,3.95
2022-12-04T19:11:36.366Z,3.95
2022-12-04T19:14:10.249Z,3.95
2022-12-04T19:16:42.243Z,3.92
2022-12-04T19:19:11.162Z,3.90
2022-12-04T19:21:38.086Z,3.94
2022-12-04T19:24:05.548Z,3.97
2022-12-04T19:26:34.532Z,3.96
2022-12-04T19:29:02.738Z,3.96
2022-12-04T19:31:35.641Z,3.98
2022-12-04T19:34:03.356Z,3.95
2022-12-04T19:36:31.479Z,3.98
2022-12-04T19:38:59.136Z,3.98
2022-12-04T19:41:30.140Z,3.94
2022-12-04T19:44:03.402Z,3.99
2022-12-04T19:46:35.233Z,4.01
2022-12-04T19:49:04.364Z,3.96
2022-12-04T19:51:33.269Z,4.01
2022-12-04T19:54:02.529Z,3.97
2022-12-04T19:56:31.173Z,4.02
2022-12-04T19:59:01.282Z,4.00
2022-12-04T20:01:30.584Z,4.00
2022-12-04T20:03:59.071Z,4.04
2022-12-04T20:06:28.119Z,4.01
2022-12-04T20:09:03.769Z,4.04
2022-12-04T20:11:31.480Z,4.03
2022-12-04T20:14:01.277Z,4.04
2022-12-04T20:16:31.293Z,4.03
2022-12-04T20:18:58.363Z,4.04
2022-12-04T20:21:30.313Z,4.00
2022-12-04T20:24:00.530Z,4.01
2022-12-04T20:26:31.623Z,3.99
2022-12-04T20:29:00.074Z,3.99
2022-12-04T20:31:30.858Z,4.00
2022-12-04T20:33:59.519Z,3.98
2022-12-04T20:36:29.049Z,4.00
2022-12-04T20:38:58.930Z,3.98
2022-12-04T20:41:30.197Z,4.04
2022-12-04T20:44:00.419Z,4.01
2022-12-04T20:46:31.769Z,3.99
2022-12-04T20:49:01.133Z,3.99
2022-12-04T20:51:33.659Z,3.98
2022-12-04T20:54:01.462Z,3.97
2022-12-04T20:56:33.093Z,3.94
2022-12-04T20:59:02.629Z,3.92
2022-12-04T21:01:29.890Z,3.94
2022-12-04T21:03:58.881Z,3.93
2022-12-04T21:06:34.609Z,3.92
2022-12-04T21:09:22.922Z,3.89
2022-12-04T21:11:56.175Z,3.92
2022-12-04T21:14:44.121Z,3.92
2022-12-04T21:17:16.842Z,3.89
2022-12-04T21:19:44.323Z,3.91
2022-12-04T21:22:11.303Z,3.94
2022-12-04T21:24:39.347Z,3.94
2022-12-04T21:27:08.126Z,3.93
2022-12-04T21:29:36.492Z,3.94
2022-12-04T21:32:04.955Z,3.94
2022-12-04T21:34:32.445Z,3.95
2022-12-04T21:36:59.470Z,3.97
2022-12-04T21:39:29.109Z,3.95
2022-12-04T21:42:14.242Z,3.94
2022-12-04T21:44:41.078Z,3.95
2022-12-04T21:47:08.018Z,3.92
2022-12-04T21:49:34.961Z,3.96
2022-12-04T21:52:01.905Z,3.92
2022-12-04T21:54:29.462Z,3.94
2022-12-04T21:56:57.286Z,3.92
2022-12-04T21:59:25.340Z,3.91
2022-12-04T22:01:54.099Z,3.90
2022-12-04T22:04:21.618Z,3.87
2022-12-04T22:06:48.643Z,3.87
2022-12-04T22:09:15.489Z,3.82
2022-12-04T22:11:43.197Z,3.89
2022-12-04T22:14:11.378Z,3.88
2022-12-04T22:16:42.751Z,3.85
2022-12-04T22:19:11.596Z,3.83
2022-12-04T22:21:39.307Z,3.87
2022-12-04T22:24:06.903Z,3.86
2022-12-04T22:26:33.798Z,3.85
2022-12-04T22:29:26.757Z,3.83
